Time;durP1;ratioP1;P1;durP2;ratioP2;P2;SDS_P1;SDS_P2;PMS_P1;PMS_P2;Temp;Humidity;BMP_temperature;BMP_pressure;BME280_temperature;BME280_humidity;BME280_pressure;Samples;Min_cycle;Max_cycle;Signal;HPM_P1;HPM_P2
2022/06/10 00:00:58;;;;;;;6.20;2.37;;;17.90;1.00;;;;;;5077186;28;20631;-85
2022/06/10 00:03:25;;;;;;;8.50;2.33;;;18.00;1.00;;;;;;5078543;28;20196;-84
2022/06/10 00:05:54;;;;;;;12.43;2.67;;;18.00;1.00;;;;;;5078179;28;20167;-85
2022/06/10 00:08:26;;;;;;;8.37;2.43;;;18.00;1.00;;;;;;5077416;28;20168;-84
2022/06/10 00:10:52;;;;;;;9.33;2.20;;;18.00;1.00;;;;;;5077944;28;20211;-86
2022/06/10 00:13:21;;;;;;;8.97;2.53;;;18.00;1.00;;;;;;5078297;28;20176;-84
2022/06/10 00:15:47;;;;;;;9.63;2.30;;;18.10;1.00;;;;;;5095959;28;20550;-86
2022/06/10 00:18:14;;;;;;;8.17;2.20;;;18.10;1.00;;;;;;5077208;28;20174;-85
2022/06/10 00:20:41;;;;;;;8.30;2.10;;;18.10;1.00;;;;;;5083970;28;20194;-84
2022/06/10 00:23:08;;;;;;;8.93;3.00;;;18.10;1.00;;;;;;5110531;28;20233;-84
2022/06/10 00:25:34;;;;;;;9.17;2.47;;;18.00;1.00;;;;;;5081530;28;20171;-86
2022/06/10 00:28:00;;;;;;;7.00;2.10;;;18.00;1.00;;;;;;5079035;28;20187;-85
2022/06/10 00:30:29;;;;;;;9.87;2.40;;;18.00;1.00;;;;;;5077634;28;20253;-86
2022/06/10 00:32:56;;;;;;;10.57;2.67;;;17.90;1.00;;;;;;5078955;28;20171;-85
2022/06/10 00:35:23;;;;;;;12.83;2.83;;;17.90;1.00;;;;;;5096463;28;20628;-84
2022/06/10 00:37:49;;;;;;;10.50;2.67;;;17.90;1.00;;;;;;5078028;28;20228;-84
2022/06/10 00:40:20;;;;;;;9.63;2.70;;;17.90;1.00;;;;;;5065206;28;20247;-83
2022/06/10 00:42:46;;;;;;;8.90;2.60;;;17.90;1.00;;;;;;5094968;28;20202;-83
2022/06/10 00:45:49;;;;;;;7.53;2.10;;;17.90;1.00;;;;;;5083719;28;20627;-85
2022/06/10 00:48:25;;;;;;;8.33;2.27;;;17.90;1.00;;;;;;5077737;28;20673;-84
2022/06/10 00:50:51;;;;;;;9.53;2.23;;;17.80;1.00;;;;;;5077484;28;20203;-86
2022/06/10 00:53:20;;;;;;;8.27;2.60;;;17.80;1.00;;;;;;5076686;28;20174;-83
2022/06/10 00:55:47;;;;;;;8.83;2.20;;;17.80;1.00;;;;;;5076969;28;20169;-85
2022/06/10 00:58:40;;;;;;;10.27;3.00;;;17.70;1.00;;;;;;5059677;28;20175;-86
2022/06/10 01:01:07;;;;;;;8.87;2.50;;;17.70;1.00;;;;;;5037113;28;20187;-84
2022/06/10 01:03:33;;;;;;;10.43;2.60;;;17.60;1.00;;;;;;5077809;28;20225;-84
2022/06/10 01:06:00;;;;;;;10.60;2.43;;;17.60;1.00;;;;;;5076736;28;20179;-85
2022/06/10 01:08:26;;;;;;;8.43;2.27;;;17.60;1.00;;;;;;5076350;28;20170;-84
2022/06/10 01:11:20;;;;;;;7.23;2.20;;;17.60;1.00;;;;;;5077133;28;20207;-87
2022/06/10 01:14:27;;;;;;;7.30;2.07;;;17.60;1.00;;;;;;5082891;28;20178;-85
2022/06/10 01:17:31;;;;;;;8.70;3.13;;;17.60;1.00;;;;;;4981123;28;20171;-85
2022/06/10 01:20:04;;;;;;;11.30;3.23;;;17.70;1.00;;;;;;4981815;28;20177;-85
2022/06/10 01:22:55;;;;;;;10.50;2.37;;;17.70;1.00;;;;;;5056192;28;20686;-84
2022/06/10 01:25:58;;;;;;;7.67;2.60;;;17.80;1.00;;;;;;5076456;28;20200;-85
2022/06/10 01:28:54;;;;;;;7.53;2.53;;;17.80;1.00;;;;;;5081881;28;20321;-85
2022/06/10 01:31:45;;;;;;;7.67;2.53;;;17.70;1.00;;;;;;5076702;28;20479;-86
2022/06/10 01:34:28;;;;;;;11.17;2.90;;;17.70;1.00;;;;;;5076578;28;20173;-85
2022/06/10 01:37:19;;;;;;;10.20;2.40;;;17.70;1.00;;;;;;5077655;28;20180;-87
2022/06/10 01:40:09;;;;;;;8.57;2.80;;;17.70;1.00;;;;;;5095444;28;20174;-83
2022/06/10 01:42:50;;;;;;;10.13;2.43;;;17.60;1.00;;;;;;5079788;28;20173;-86
2022/06/10 01:45:44;;;;;;;10.10;2.83;;;17.60;1.00;;;;;;5078587;28;20178;-86
2022/06/10 01:48:34;;;;;;;10.20;2.70;;;17.60;1.00;;;;;;5076704;28;20186;-86
2022/06/10 01:51:09;;;;;;;8.23;3.10;;;17.60;1.00;;;;;;5094855;28;20225;-87
2022/06/10 01:54:04;;;;;;;8.23;3.53;;;17.60;1.00;;;;;;5078070;28;20657;-85
2022/06/10 01:56:35;;;;;;;11.63;4.23;;;17.50;1.00;;;;;;5079347;28;20202;-84
2022/06/10 01:59:08;;;;;;;11.67;4.13;;;17.60;1.00;;;;;;5095346;28;20167;-84
2022/06/10 02:01:49;;;;;;;8.67;3.80;;;17.60;1.00;;;;;;5093279;28;20172;-84
2022/06/10 02:04:27;;;;;;;12.57;3.87;;;17.60;1.00;;;;;;5086955;28;20173;-83
2022/06/10 02:07:06;;;;;;;12.43;4.30;;;17.60;1.00;;;;;;5096308;28;20630;-86
2022/06/10 02:09:46;;;;;;;13.33;4.57;;;17.60;1.00;;;;;;5072729;28;20175;-84
2022/06/10 02:12:31;;;;;;;10.90;4.80;;;17.70;1.00;;;;;;5080872;28;20217;-85
2022/06/10 02:15:06;;;;;;;10.80;4.17;;;17.60;1.00;;;;;;5082981;28;20702;-86
2022/06/10 02:17:38;;;;;;;11.63;3.97;;;17.50;1.00;;;;;;5085296;28;20180;-84
2022/06/10 02:20:05;;;;;;;12.77;4.33;;;17.50;1.00;;;;;;5093179;28;20188;-84
2022/06/10 02:22:43;;;;;;;13.60;4.13;;;17.50;1.00;;;;;;5100992;28;20219;-84
2022/06/10 02:25:18;;;;;;;13.60;4.63;;;17.50;1.00;;;;;;5077247;28;20203;-85
2022/06/10 02:27:54;;;;;;;10.00;4.97;;;17.50;1.00;;;;;;5076009;28;20178;-83
2022/06/10 02:30:25;;;;;;;14.17;4.70;;;17.50;1.00;;;;;;5076657;28;20307;-84
2022/06/10 02:32:51;;;;;;;11.60;5.03;;;17.50;1.00;;;;;;5091953;28;20186;-84
2022/06/10 02:35:18;;;;;;;11.33;5.67;;;17.60;1.00;;;;;;5087240;28;20184;-85
2022/06/10 02:38:12;;;;;;;13.93;4.83;;;17.50;1.00;;;;;;5083037;28;20182;-84
2022/06/10 02:40:57;;;;;;;13.60;5.23;;;17.60;1.00;;;;;;5080165;28;20172;-84
2022/06/10 02:43:32;;;;;;;11.67;4.80;;;17.50;1.00;;;;;;5082382;28;20167;-84
2022/06/10 02:46:22;;;;;;;11.33;5.33;;;17.60;1.00;;;;;;5082521;28;20189;-84
2022/06/10 02:49:07;;;;;;;12.03;5.73;;;17.50;1.70;;;;;;5064423;28;20547;-85
2022/06/10 02:51:35;;;;;;;12.73;5.00;;;17.40;5.40;;;;;;5082118;28;20541;-85
2022/06/10 02:54:04;;;;;;;12.87;6.73;;;17.40;8.00;;;;;;5064007;28;20168;-85
2022/06/10 02:56:31;;;;;;;15.43;7.13;;;17.50;9.10;;;;;;5081168;28;20187;-84
2022/06/10 03:02:03;;;;;;;16.23;7.40;;;17.50;3.60;;;;;;5104542;28;20192;-84
2022/06/10 03:05:00;;;;;;;13.57;6.17;;;17.50;6.00;;;;;;5108552;28;20167;-82
2022/06/10 03:07:45;;;;;;;11.77;5.20;;;17.40;6.50;;;;;;5112289;28;20180;-83
2022/06/10 03:10:23;;;;;;;11.07;4.90;;;17.40;11.10;;;;;;5110402;28;20195;-84
2022/06/10 03:13:05;;;;;;;14.03;4.30;;;17.30;13.50;;;;;;5090286;28;20172;-85
2022/06/10 03:16:08;;;;;;;10.03;3.80;;;17.30;14.20;;;;;;5085048;28;20180;-84
2022/06/10 03:19:11;;;;;;;11.00;3.67;;;17.30;15.90;;;;;;5043705;28;20202;-84
2022/06/10 03:21:48;;;;;;;7.40;3.27;;;17.40;15.10;;;;;;5079790;28;20191;-84
2022/06/10 03:24:28;;;;;;;7.83;2.90;;;17.40;13.70;;;;;;5083333;28;20187;-84
2022/06/10 03:27:22;;;;;;;8.77;2.70;;;17.40;13.90;;;;;;5083456;28;20171;-83
2022/06/10 03:30:01;;;;;;;10.47;2.73;;;17.50;12.00;;;;;;5113192;28;20248;-83
2022/06/10 03:32:33;;;;;;;6.80;2.60;;;17.50;12.70;;;;;;5084627;28;20182;-84
2022/06/10 03:35:06;;;;;;;6.47;2.23;;;17.50;14.40;;;;;;5080348;28;20169;-84
2022/06/10 03:37:34;;;;;;;10.03;2.50;;;17.60;12.00;;;;;;5096811;28;20251;-85
2022/06/10 03:40:00;;;;;;;7.00;2.27;;;17.50;12.70;;;;;;5077574;28;20546;-85
2022/06/10 03:42:27;;;;;;;7.27;2.30;;;17.60;9.20;;;;;;5079474;28;20168;-88
2022/06/10 03:44:57;;;;;;;8.10;2.20;;;17.60;9.20;;;;;;5082865;28;20175;-85
2022/06/10 03:47:31;;;;;;;6.90;2.10;;;17.50;13.00;;;;;;5083758;28;20173;-87
2022/06/10 03:50:05;;;;;;;9.00;2.37;;;17.60;14.20;;;;;;5080126;28;20574;-87
2022/06/10 03:52:34;;;;;;;5.67;1.97;;;17.60;11.80;;;;;;5079854;28;20193;-86
2022/06/10 03:55:01;;;;;;;7.37;2.00;;;17.60;10.40;;;;;;5078522;28;20635;-85
2022/06/10 03:57:28;;;;;;;7.63;2.17;;;17.60;9.70;;;;;;5077586;28;20180;-85
2022/06/10 03:59:54;;;;;;;5.10;1.77;;;17.50;7.60;;;;;;5077920;28;20172;-85
2022/06/10 04:02:19;;;;;;;6.03;1.87;;;17.50;8.10;;;;;;5079984;28;20187;-85
2022/06/10 04:04:45;;;;;;;7.67;1.87;;;17.50;6.00;;;;;;5079229;28;20178;-86
2022/06/10 04:07:13;;;;;;;8.17;2.20;;;17.60;7.10;;;;;;5079876;28;20207;-90
2022/06/10 04:09:39;;;;;;;9.67;2.00;;;17.60;5.50;;;;;;5078699;28;20591;-91
2022/06/10 04:12:06;;;;;;;4.60;1.60;;;17.60;4.20;;;;;;5077191;28;20223;-85
2022/06/10 04:14:31;;;;;;;6.63;1.83;;;17.60;3.30;;;;;;5077534;28;20180;-85
2022/06/10 04:16:57;;;;;;;6.17;1.77;;;17.60;2.40;;;;;;5077532;28;20286;-84
2022/06/10 04:19:23;;;;;;;7.97;2.10;;;17.60;3.30;;;;;;5077010;28;20225;-85
2022/06/10 04:21:49;;;;;;;4.10;1.70;;;17.60;4.00;;;;;;5077814;28;20765;-86
2022/06/10 04:24:15;;;;;;;7.23;1.80;;;17.70;2.70;;;;;;5078268;28;20656;-85
2022/06/10 04:26:41;;;;;;;7.53;2.00;;;17.60;3.70;;;;;;5078162;28;20180;-85
2022/06/10 04:29:08;;;;;;;7.67;1.90;;;17.70;4.40;;;;;;5077948;28;20328;-85
2022/06/10 04:31:34;;;;;;;7.63;1.87;;;17.70;2.50;;;;;;5097111;28;20283;-85
2022/06/10 04:34:00;;;;;;;7.23;1.70;;;17.70;2.20;;;;;;5076697;28;20186;-84
2022/06/10 04:36:26;;;;;;;4.60;1.57;;;17.70;3.00;;;;;;5077970;28;20171;-85
2022/06/10 04:38:51;;;;;;;5.13;1.40;;;17.80;1.00;;;;;;5096558;28;20195;-86
2022/06/10 04:41:17;;;;;;;6.73;1.93;;;17.80;1.40;;;;;;5085318;28;20194;-83
2022/06/10 04:43:43;;;;;;;5.47;1.63;;;17.90;1.00;;;;;;5097334;28;20203;-84
2022/06/10 04:46:13;;;;;;;5.83;1.60;;;17.80;1.00;;;;;;5108745;28;20179;-84
2022/06/10 04:48:39;;;;;;;7.10;1.73;;;17.80;1.00;;;;;;5108596;28;20172;-84
2022/06/10 04:51:05;;;;;;;5.87;2.00;;;17.80;1.00;;;;;;5082020;28;20223;-85
2022/06/10 04:53:31;;;;;;;7.50;2.00;;;17.70;1.00;;;;;;5097435;28;20168;-85
2022/06/10 04:55:57;;;;;;;8.30;2.00;;;17.80;1.00;;;;;;5078983;28;20174;-84
2022/06/10 04:58:23;;;;;;;5.37;1.60;;;17.80;1.00;;;;;;5078921;28;20188;-84
2022/06/10 05:00:51;;;;;;;8.87;2.00;;;17.90;1.00;;;;;;5085506;28;20170;-85
2022/06/10 05:03:18;;;;;;;7.10;1.93;;;17.80;1.00;;;;;;5082497;28;20191;-84
2022/06/10 05:05:44;;;;;;;7.97;1.70;;;18.00;1.00;;;;;;5112534;28;20267;-86
2022/06/10 05:08:13;;;;;;;9.77;1.97;;;18.00;1.00;;;;;;5088927;28;20175;-89
2022/06/10 05:10:39;;;;;;;6.67;2.00;;;18.00;1.00;;;;;;5087713;28;20577;-90
2022/06/10 05:13:06;;;;;;;8.07;1.90;;;18.00;1.00;;;;;;5082798;28;20192;-88
2022/06/10 05:15:34;;;;;;;10.00;2.03;;;18.00;1.00;;;;;;5088649;28;20180;-86
2022/06/10 05:18:00;;;;;;;7.90;1.83;;;18.00;1.00;;;;;;5090021;28;20179;-85
2022/06/10 05:20:32;;;;;;;8.97;2.03;;;18.10;1.00;;;;;;5084315;28;20192;-84
2022/06/10 05:22:59;;;;;;;6.10;1.93;;;18.10;1.00;;;;;;5071705;28;20251;-86
2022/06/10 05:25:28;;;;;;;10.10;1.97;;;18.10;1.00;;;;;;5107641;28;20156;-89
2022/06/10 05:27:54;;;;;;;7.53;1.93;;;18.10;1.00;;;;;;5087210;28;20183;-89
2022/06/10 05:30:23;;;;;;;6.63;1.60;;;18.20;1.00;;;;;;5089237;28;20199;-89
2022/06/10 05:32:49;;;;;;;4.57;1.60;;;18.20;1.00;;;;;;5092044;28;20178;-92
2022/06/10 05:35:15;;;;;;;7.37;1.80;;;18.20;1.00;;;;;;5095467;28;20170;-84
2022/06/10 05:37:41;;;;;;;8.50;2.00;;;18.20;1.00;;;;;;5082309;28;20175;-87
2022/06/10 05:40:11;;;;;;;8.80;1.80;;;18.20;1.00;;;;;;5099665;28;20169;-87
2022/06/10 05:42:39;;;;;;;6.40;1.90;;;18.20;1.00;;;;;;5098717;28;20179;-81
2022/06/10 05:45:07;;;;;;;6.37;2.10;;;18.20;1.00;;;;;;5117663;28;20164;-88
2022/06/10 05:47:34;;;;;;;6.97;1.63;;;18.20;1.00;;;;;;5099271;28;20186;-82
2022/06/10 05:50:07;;;;;;;8.27;2.00;;;18.30;1.00;;;;;;5098959;28;20188;-86
2022/06/10 05:52:33;;;;;;;9.67;2.47;;;18.20;1.00;;;;;;5100032;28;20152;-85
2022/06/10 05:55:04;;;;;;;8.83;2.27;;;18.30;1.00;;;;;;5117958;28;20171;-88
2022/06/10 05:57:31;;;;;;;9.83;2.33;;;18.30;1.00;;;;;;5117052;28;20182;-86
2022/06/10 06:00:05;;;;;;;11.47;2.33;;;18.40;1.00;;;;;;5098961;28;20152;-86
2022/06/10 06:02:41;;;;;;;7.60;1.90;;;18.50;1.00;;;;;;5099575;28;20229;-89
2022/06/10 06:05:52;;;;;;;10.07;2.03;;;18.40;1.00;;;;;;5100453;28;20180;-87
2022/06/10 06:09:14;;;;;;;7.10;2.00;;;18.50;1.00;;;;;;5115599;28;20148;-87
2022/06/10 06:12:11;;;;;;;5.77;1.90;;;18.60;1.00;;;;;;5097472;28;20209;-85
2022/06/10 06:18:00;;;;;;;10.47;2.30;;;18.40;1.00;;;;;;5121340;28;20175;-91
2022/06/10 06:20:27;;;;;;;8.40;2.30;;;18.40;1.00;;;;;;5103318;28;20179;-85
2022/06/10 06:23:11;;;;;;;5.47;2.23;;;18.50;1.00;;;;;;5120851;28;20156;-90
2022/06/10 06:25:44;;;;;;;9.27;2.43;;;18.40;1.00;;;;;;5097280;28;20282;-83
2022/06/10 06:28:43;;;;;;;11.83;2.67;;;18.60;1.00;;;;;;5116158;28;20187;-83
2022/06/10 06:31:50;;;;;;;12.07;2.70;;;18.60;1.00;;;;;;5099878;28;20227;-85
2022/06/10 06:38:17;;;;;;;15.53;3.23;;;18.70;1.00;;;;;;5114947;28;20164;-83
2022/06/10 06:44:11;;;;;;;8.67;2.30;;;18.80;1.00;;;;;;5117107;28;20239;-83
2022/06/10 06:50:13;;;;;;;8.20;2.60;;;18.80;1.00;;;;;;5117878;28;20276;-83
2022/06/10 06:56:12;;;;;;;6.43;2.33;;;18.80;1.00;;;;;;5119749;28;20154;-81
2022/06/10 07:05:54;;;;;;;10.70;2.87;;;18.80;1.00;;;;;;5077627;28;20231;-84
2022/06/10 07:11:42;;;;;;;12.27;3.20;;;18.70;1.00;;;;;;5080107;28;20196;-82
2022/06/10 07:14:43;;;;;;;10.53;2.70;;;18.70;1.90;;;;;;5062531;28;20173;-81
2022/06/10 07:23:38;;;;;;;9.90;3.43;;;19.00;1.00;;;;;;5019359;28;20315;-82
2022/06/10 07:29:51;;;;;;;8.97;3.30;;;19.00;1.00;;;;;;5079230;28;20174;-82
2022/06/10 07:35:50;;;;;;;14.20;4.00;;;19.30;1.00;;;;;;5091181;28;20170;-82
2022/06/10 07:38:58;;;;;;;10.57;3.17;;;19.40;1.00;;;;;;5119693;28;20160;-84
2022/06/10 07:44:49;;;;;;;12.67;3.67;;;19.60;1.00;;;;;;5120446;28;20266;-84
2022/06/10 07:51:17;;;;;;;11.07;3.30;;;19.60;1.00;;;;;;5120391;28;20204;-84
2022/06/10 07:57:17;;;;;;;10.73;3.47;;;19.60;1.00;;;;;;5119935;28;20156;-83
2022/06/10 08:00:40;;;;;;;11.53;3.73;;;19.50;1.00;;;;;;5105302;28;20168;-83
2022/06/10 08:06:57;;;;;;;8.43;2.87;;;19.50;1.00;;;;;;5120104;28;20168;-82
2022/06/10 08:13:09;;;;;;;12.97;3.80;;;19.50;1.00;;;;;;5120090;28;20183;-81
2022/06/10 08:18:57;;;;;;;9.70;3.47;;;19.50;1.00;;;;;;5120014;28;20225;-84
2022/06/10 08:25:26;;;;;;;13.10;3.70;;;19.80;1.00;;;;;;5098491;28;20194;-83
2022/06/10 08:28:46;;;;;;;8.60;4.30;;;19.80;1.00;;;;;;5118893;28;20229;-83
2022/06/10 08:32:01;;;;;;;9.80;3.93;;;19.90;1.00;;;;;;5113935;28;20209;-83
2022/06/10 08:35:09;;;;;;;14.00;4.33;;;20.00;1.00;;;;;;5102255;28;20197;-84
2022/06/10 08:38:22;;;;;;;9.10;3.20;;;20.00;1.00;;;;;;5098039;28;20505;-84
2022/06/10 08:41:55;;;;;;;10.97;3.40;;;20.00;1.00;;;;;;5116217;28;20223;-84
2022/06/10 08:48:19;;;;;;;9.63;3.67;;;20.40;1.00;;;;;;5116212;28;20140;-84
2022/06/10 08:54:36;;;;;;;11.03;3.90;;;20.40;1.00;;;;;;5116952;28;20237;-84
2022/06/10 09:00:52;;;;;;;10.87;3.47;;;20.60;1.00;;;;;;5117074;28;20161;-84
2022/06/10 09:17:20;;;;;;;10.73;4.17;;;20.80;1.00;;;;;;5116967;28;20137;-85
2022/06/10 09:26:57;;;;;;;17.47;4.10;;;21.30;1.00;;;;;;5116753;28;20162;-84
2022/06/10 09:30:13;;;;;;;10.87;4.23;;;21.60;1.00;;;;;;5115864;28;20168;-85
2022/06/10 09:36:27;;;;;;;12.67;4.30;;;22.10;1.00;;;;;;5117279;28;20170;-84
2022/06/10 09:43:20;;;;;;;15.60;6.47;;;22.30;1.00;;;;;;5116897;28;20159;-84
2022/06/10 09:46:50;;;;;;;10.43;4.13;;;22.20;1.00;;;;;;5116910;28;20167;-84
2022/06/10 09:49:55;;;;;;;14.33;5.40;;;22.10;1.00;;;;;;5066528;28;20169;-84
2022/06/10 09:53:30;;;;;;;13.10;5.90;;;22.20;1.00;;;;;;5122072;28;20227;-82
2022/06/10 10:06:14;;;;;;;12.90;5.80;;;22.70;1.00;;;;;;5121546;28;20224;-83
2022/06/10 10:12:29;;;;;;;16.67;6.27;;;22.90;1.00;;;;;;5121475;28;20234;-83
2022/06/10 10:19:04;;;;;;;14.87;6.13;;;22.80;1.00;;;;;;5121767;28;20176;-84
2022/06/10 10:24:24;;;;;;;14.53;7.13;;;23.00;1.00;;;;;;5055180;26;20194;-84
2022/06/10 10:38:15;;;;;;;13.90;6.90;;;23.00;1.00;;;;;;5078397;28;20177;-85
2022/06/10 10:41:35;;;;;;;14.27;6.97;;;22.90;1.00;;;;;;5078932;28;20657;-87
2022/06/10 10:44:27;;;;;;;12.87;6.63;;;23.10;1.00;;;;;;5059033;28;20200;-89
2022/06/10 10:47:12;;;;;;;12.50;5.80;;;23.20;1.00;;;;;;5074230;28;20182;-95
2022/06/10 10:49:51;;;;;;;11.77;4.77;;;23.30;1.00;;;;;;5056151;28;20207;-92
2022/06/10 10:53:07;;;;;;;12.37;5.43;;;23.30;1.00;;;;;;5052604;28;20192;-94
2022/06/10 10:55:57;;;;;;;11.27;4.80;;;23.50;1.00;;;;;;5058719;28;20171;-88
2022/06/10 10:58:52;;;;;;;11.30;4.97;;;23.70;1.00;;;;;;5078963;28;20192;-84
2022/06/10 11:02:24;;;;;;;12.90;5.43;;;23.70;1.00;;;;;;5077236;28;20183;-86
2022/06/10 11:05:17;;;;;;;13.73;4.67;;;23.70;1.00;;;;;;5071956;28;20199;-91
2022/06/10 11:11:24;;;;;;;9.07;4.30;;;23.80;1.00;;;;;;5078182;28;20344;-87
2022/06/10 11:13:58;;;;;;;10.10;4.53;;;24.00;1.00;;;;;;5060631;28;20159;-93
2022/06/10 11:16:26;;;;;;;9.67;3.90;;;24.10;1.00;;;;;;5044555;28;20160;-87
2022/06/10 11:20:12;;;;;;;10.37;3.90;;;24.20;1.00;;;;;;5063141;28;20165;-85
2022/06/10 11:23:10;;;;;;;11.37;3.93;;;23.80;1.00;;;;;;5042568;28;20202;-85
2022/06/10 11:25:43;;;;;;;8.67;3.17;;;23.60;1.00;;;;;;5035189;28;20165;-90
2022/06/10 11:28:43;;;;;;;7.60;3.20;;;23.50;1.00;;;;;;5034860;28;20176;-90
2022/06/10 11:31:52;;;;;;;8.23;2.90;;;23.60;1.00;;;;;;5037032;28;20200;-88
2022/06/10 11:34:40;;;;;;;9.17;3.03;;;23.60;1.00;;;;;;5036359;28;20168;-90
2022/06/10 11:37:31;;;;;;;9.67;3.10;;;23.50;1.00;;;;;;5014588;28;20276;-96
2022/06/10 11:40:33;;;;;;;8.10;3.00;;;23.40;1.00;;;;;;5029494;28;20192;-94
2022/06/10 11:43:29;;;;;;;8.50;3.33;;;23.30;1.00;;;;;;5031426;28;20260;-96
2022/06/10 11:46:04;;;;;;;8.13;3.40;;;23.40;1.00;;;;;;5045270;28;20197;-92
2022/06/10 11:48:57;;;;;;;7.90;3.20;;;23.40;1.00;;;;;;5038381;28;20227;-88
2022/06/10 11:51:38;;;;;;;9.80;3.30;;;23.30;1.00;;;;;;5036822;28;20210;-90
2022/06/10 12:01:11;;;;;;;7.60;2.90;;;23.70;1.00;;;;;;5034445;28;20208;-86
2022/06/10 12:04:21;;;;;;;8.37;2.60;;;23.60;1.00;;;;;;5039287;28;20164;-86
2022/06/10 12:11:24;;;;;;;9.20;3.10;;;23.50;1.00;;;;;;5039373;28;20222;-85
2022/06/10 12:14:29;;;;;;;6.87;2.60;;;23.70;1.00;;;;;;5021666;28;20177;-85
2022/06/10 12:24:06;;;;;;;10.63;3.00;;;24.40;1.00;;;;;;5057874;28;20183;-84
2022/06/10 12:30:02;;;;;;;8.83;2.70;;;24.10;1.00;;;;;;5058924;28;20184;-93
2022/06/10 12:32:57;;;;;;;8.40;2.40;;;24.20;1.00;;;;;;5056914;28;20184;-96
2022/06/10 12:35:34;;;;;;;7.57;2.40;;;24.30;1.00;;;;;;5035768;28;20268;-96
2022/06/10 12:38:29;;;;;;;8.47;2.47;;;24.30;1.00;;;;;;5037353;28;20164;-93
2022/06/10 12:41:38;;;;;;;6.70;2.27;;;24.10;1.00;;;;;;5039133;28;20202;-88
2022/06/10 12:44:46;;;;;;;10.43;2.33;;;24.20;1.00;;;;;;5055590;28;20197;-90
2022/06/10 12:47:54;;;;;;;6.40;2.17;;;24.30;1.00;;;;;;5055573;28;20192;-86
2022/06/10 12:50:37;;;;;;;8.10;2.50;;;24.20;1.00;;;;;;5035547;28;20196;-94
2022/06/10 12:53:51;;;;;;;6.27;2.43;;;24.00;1.00;;;;;;5049571;28;20188;-91
2022/06/10 12:57:04;;;;;;;8.30;2.03;;;23.90;1.00;;;;;;5031015;28;20216;-84
2022/06/10 13:03:40;;;;;;;11.23;2.60;;;24.00;1.00;;;;;;5033888;28;20244;-84
2022/06/10 13:07:11;;;;;;;7.97;2.17;;;24.10;1.00;;;;;;5055898;28;20164;-83
2022/06/10 13:13:38;;;;;;;7.10;2.23;;;23.90;1.00;;;;;;5014170;28;20273;-89
2022/06/10 13:16:48;;;;;;;10.10;2.53;;;24.10;1.00;;;;;;5011587;28;20183;-90
2022/06/10 13:19:56;;;;;;;6.40;1.80;;;24.10;1.00;;;;;;5014377;28;20290;-96
2022/06/10 13:22:24;;;;;;;11.17;2.73;;;24.00;1.00;;;;;;5001113;28;20197;-88
2022/06/10 13:25:05;;;;;;;10.13;2.50;;;23.80;1.00;;;;;;5000253;28;20241;-87
2022/06/10 13:27:45;;;;;;;7.00;2.20;;;23.80;1.00;;;;;;5027994;28;20188;-89
2022/06/10 13:30:44;;;;;;;6.53;2.40;;;23.90;1.00;;;;;;5040297;28;20288;-85
2022/06/10 13:33:32;;;;;;;6.63;1.97;;;23.90;1.00;;;;;;5040452;28;20209;-85
2022/06/10 13:37:05;;;;;;;6.60;2.13;;;23.90;1.00;;;;;;5041056;28;20252;-86
2022/06/10 13:39:40;;;;;;;9.10;2.87;;;24.10;1.00;;;;;;5056744;28;20166;-94
2022/06/10 13:42:28;;;;;;;7.80;2.37;;;24.00;1.00;;;;;;5036508;28;20189;-94
2022/06/10 13:45:00;;;;;;;7.30;2.20;;;23.90;1.00;;;;;;5014273;28;20223;-91
2022/06/10 13:47:34;;;;;;;7.23;2.20;;;23.90;1.00;;;;;;5018586;28;20168;-88
2022/06/10 13:51:25;;;;;;;6.77;2.20;;;23.80;1.00;;;;;;5019364;28;20161;-91
2022/06/10 13:53:53;;;;;;;6.87;1.80;;;23.70;1.00;;;;;;5027277;28;20184;-87
2022/06/10 13:56:42;;;;;;;8.23;2.17;;;23.70;1.00;;;;;;5027938;28;20247;-84
2022/06/10 13:59:30;;;;;;;7.97;2.20;;;23.60;1.00;;;;;;5027523;28;20207;-87
2022/06/10 14:02:19;;;;;;;10.10;2.13;;;23.70;1.00;;;;;;5020392;28;20179;-87
2022/06/10 14:04:45;;;;;;;6.63;2.33;;;23.80;1.00;;;;;;5037288;28;20217;-88
2022/06/10 14:07:42;;;;;;;9.63;2.73;;;23.70;1.00;;;;;;5019372;28;20186;-86
2022/06/10 14:10:21;;;;;;;5.40;2.40;;;23.70;1.00;;;;;;5036914;28;20215;-85
2022/06/10 14:13:03;;;;;;;10.87;2.93;;;23.70;1.00;;;;;;5013538;28;20193;-86
2022/06/10 14:15:33;;;;;;;6.33;2.60;;;23.80;1.00;;;;;;5034464;28;20212;-87
2022/06/10 14:18:16;;;;;;;10.27;3.37;;;23.80;1.00;;;;;;5036502;28;20181;-86
2022/06/10 14:21:24;;;;;;;7.77;2.73;;;23.90;1.00;;;;;;5036060;28;20188;-87
2022/06/10 14:24:05;;;;;;;6.73;2.33;;;23.90;1.00;;;;;;5035021;28;20191;-84
2022/06/10 14:27:05;;;;;;;10.00;2.73;;;24.10;1.00;;;;;;5030591;28;20192;-91
2022/06/10 14:29:52;;;;;;;7.73;2.50;;;24.10;1.00;;;;;;5034741;28;20177;-92
2022/06/10 14:33:10;;;;;;;6.73;2.83;;;24.20;1.00;;;;;;5032965;28;20201;-91
2022/06/10 14:35:52;;;;;;;6.03;2.13;;;24.20;1.00;;;;;;5029912;28;20182;-90
2022/06/10 14:38:56;;;;;;;7.63;1.97;;;24.40;1.00;;;;;;5038952;28;20252;-88
2022/06/10 14:44:56;;;;;;;7.17;2.00;;;24.40;1.00;;;;;;5041226;28;20169;-85
2022/06/10 14:48:10;;;;;;;6.03;2.23;;;24.60;1.00;;;;;;5022469;28;20184;-87
2022/06/10 14:51:03;;;;;;;7.60;2.40;;;24.50;1.00;;;;;;5034612;28;20204;-84
2022/06/10 14:54:10;;;;;;;10.87;2.60;;;24.50;1.00;;;;;;5032036;28;20169;-92
2022/06/10 14:57:14;;;;;;;7.23;2.10;;;24.50;1.00;;;;;;5032615;28;20172;-85
2022/06/10 14:59:55;;;;;;;6.67;2.27;;;24.60;1.00;;;;;;5017741;28;20276;-96
2022/06/10 15:02:32;;;;;;;6.47;1.90;;;24.70;1.00;;;;;;5038059;28;20199;-90
2022/06/10 15:07:46;;;;;;;5.97;1.90;;;24.50;1.00;;;;;;5045139;28;20159;-88
2022/06/10 15:10:16;;;;;;;7.00;1.63;;;24.30;1.00;;;;;;5040015;28;20199;-90
2022/06/10 15:13:25;;;;;;;5.87;1.87;;;24.20;1.00;;;;;;5031296;28;20263;-92
2022/06/10 15:16:30;;;;;;;5.03;1.40;;;24.20;1.00;;;;;;5047247;28;20594;-85
2022/06/10 15:19:22;;;;;;;4.60;1.73;;;24.20;1.00;;;;;;5056616;28;20207;-87
2022/06/10 15:25:33;;;;;;;6.47;1.73;;;24.30;1.00;;;;;;5056272;28;20203;-87
2022/06/10 15:28:26;;;;;;;4.97;1.70;;;24.00;1.00;;;;;;5055831;28;20163;-84
2022/06/10 15:30:57;;;;;;;4.10;1.67;;;23.70;1.00;;;;;;5039096;28;20221;-85
2022/06/10 15:33:32;;;;;;;4.00;1.60;;;23.70;1.00;;;;;;5039215;28;20175;-87
2022/06/10 15:41:38;;;;;;;4.57;1.70;;;24.10;1.00;;;;;;5042584;28;20552;-91
2022/06/10 15:44:26;;;;;;;4.20;1.50;;;24.10;1.00;;;;;;5022841;28;20187;-88
2022/06/10 15:47:15;;;;;;;8.13;2.37;;;24.20;1.00;;;;;;5021995;28;20197;-96
2022/06/10 15:49:48;;;;;;;9.10;1.70;;;24.20;1.00;;;;;;5039519;28;20209;-86
2022/06/10 15:52:36;;;;;;;5.83;1.83;;;24.10;1.00;;;;;;5031312;28;20231;-90
2022/06/10 15:58:22;;;;;;;4.23;1.50;;;24.00;1.00;;;;;;5051800;28;20179;-96
2022/06/10 16:01:13;;;;;;;4.97;1.37;;;23.80;1.00;;;;;;5031793;28;20185;-89
2022/06/10 16:03:39;;;;;;;3.93;1.40;;;23.70;1.00;;;;;;4993386;28;20175;-90
2022/06/10 16:06:05;;;;;;;3.57;1.33;;;23.50;1.00;;;;;;5020782;28;20285;-91
2022/06/10 16:08:31;;;;;;;4.73;1.40;;;23.40;1.00;;;;;;5024302;28;20270;-91
2022/06/10 16:10:58;;;;;;;6.00;1.60;;;23.30;1.00;;;;;;5016578;28;20214;-92
2022/06/10 16:13:55;;;;;;;5.30;1.80;;;23.20;1.00;;;;;;5029422;28;20230;-87
2022/06/10 16:16:51;;;;;;;4.43;1.60;;;23.30;1.00;;;;;;5031468;28;20246;-88
2022/06/10 16:19:16;;;;;;;4.53;1.90;;;23.20;1.00;;;;;;5042094;28;20212;-94
2022/06/10 16:21:42;;;;;;;5.30;1.60;;;23.10;1.00;;;;;;5031204;28;20209;-89
2022/06/10 16:24:11;;;;;;;3.37;1.50;;;23.10;1.00;;;;;;5017623;28;20190;-88
2022/06/10 16:26:38;;;;;;;5.43;1.80;;;23.20;1.00;;;;;;5028657;28;20658;-88
2022/06/10 16:29:30;;;;;;;6.87;1.60;;;23.30;1.00;;;;;;5046115;28;20169;-95
2022/06/10 16:31:59;;;;;;;5.10;1.50;;;23.40;1.00;;;;;;5036220;28;20829;-91
2022/06/10 16:34:32;;;;;;;7.40;1.83;;;23.40;1.00;;;;;;5053485;28;20174;-94
2022/06/10 16:37:00;;;;;;;5.37;1.70;;;23.30;1.00;;;;;;5046556;28;20237;-96
2022/06/10 16:39:41;;;;;;;3.60;1.57;;;23.30;1.00;;;;;;5023045;28;20178;-95
2022/06/10 16:42:23;;;;;;;4.57;1.77;;;23.20;1.00;;;;;;5009291;28;20185;-92
2022/06/10 16:44:52;;;;;;;6.63;1.60;;;23.10;1.00;;;;;;5009085;28;20188;-96
2022/06/10 16:54:58;;;;;;;4.33;1.63;;;23.00;1.00;;;;;;5056152;28;20178;-86
2022/06/10 16:58:01;;;;;;;5.33;1.80;;;23.00;1.00;;;;;;5039231;28;20175;-87
2022/06/10 17:00:34;;;;;;;4.57;1.53;;;23.10;1.00;;;;;;5026031;28;20185;-92
2022/06/10 17:03:07;;;;;;;4.67;1.90;;;23.20;1.00;;;;;;5030076;28;20200;-95
2022/06/10 17:05:44;;;;;;;4.37;1.53;;;23.30;1.00;;;;;;4997819;28;20194;-93
2022/06/10 17:08:29;;;;;;;4.57;1.60;;;23.30;1.00;;;;;;5053090;28;20174;-94
2022/06/10 17:11:29;;;;;;;6.63;1.90;;;23.20;1.00;;;;;;5040370;28;20273;-92
2022/06/10 17:13:57;;;;;;;6.43;1.97;;;23.10;1.00;;;;;;5037280;28;20189;-89
2022/06/10 17:16:32;;;;;;;3.50;1.63;;;22.90;1.00;;;;;;5023060;28;20171;-89
2022/06/10 17:18:59;;;;;;;3.80;1.50;;;22.80;1.00;;;;;;5171370;23;20209;-93
2022/06/10 17:21:30;;;;;;;8.13;1.70;;;22.70;1.00;;;;;;5116650;28;20179;-88
2022/06/10 17:23:55;;;;;;;10.37;2.20;;;22.60;1.00;;;;;;5120606;28;20176;-90
2022/06/10 17:26:26;;;;;;;4.33;1.67;;;22.70;1.00;;;;;;5138103;28;20155;-89